This is the latest recevied weather packets stored in our database for station/object G7TKI-13. If no packets are shown the sender has not sent any weather packets the latest 10 day(s).
| Time | Temp. | Humidity | Pressure | Rain* | Wind** | Luminosity | Snow |
|---|---|---|---|---|---|---|---|
| 1777358314 | 8.89° C | 92% | 1028.4 hPa | 0 mm | - | 61 W/m² | - |
| 1777353457 | 8.33° C | 95% | 1027.6 hPa | 0 mm | - | 3 W/m² | - |
| 1777350414 | 8.33° C | 96% | 1027.5 hPa | 0 mm | - | 0 W/m² | - |
| 1777346175 | 8.89° C | 96% | 1027.2 hPa | 0.25 mm | - | 0 W/m² | - |
| 1777344978 | 8.89° C | 95% | 1027.2 hPa | 0.25 mm | - | 0 W/m² | - |
| 1777337674 | 8.89° C | 90% | 1027.6 hPa | 0 mm | - | 0 W/m² | - |
| 1777334027 | 9.44° C | 89% | 1027.5 hPa | 0 mm | - | 0 W/m² | - |
| 1777332219 | 9.44° C | 90% | 1027.4 hPa | 0 mm | - | 0 W/m² | - |
| 1777324356 | 10.56° C | 90% | 1027 hPa | 0 mm | - | 0 W/m² | - |
| 1777321326 | 11.11° C | 89% | 1027 hPa | 0 mm | - | 0 W/m² | - |
| 1777320718 | 11.11° C | 89% | 1027.1 hPa | 0.25 mm | - | 0 W/m² | - |
| 1777318280 | 11.67° C | 86% | 1026.9 hPa | 0.25 mm | - | 1 W/m² | - |
| 1777315247 | 15° C | 71% | 1026.6 hPa | 0 mm | - | 5 W/m² | - |
| 1777314061 | 16.11° C | 66% | 1026 hPa | 0 mm | - | 29 W/m² | - |
| 1777311628 | 17.22° C | 61% | 1025.7 hPa | 0 mm | - | 75 W/m² | - |
| 1777309802 | 18.33° C | 58% | 1025.5 hPa | 0 mm | - | 90 W/m² | - |
| 1777304335 | 20° C | 39% | 1025.7 hPa | 0 mm | - | 131 W/m² | - |
| 1777293391 | 20.56° C | 45% | 1027.5 hPa | 0 mm | - | 251 W/m² | - |
| 1777289739 | 19.44° C | 49% | 1027.6 hPa | 0 mm | - | 676 W/m² | - |
| 1777288535 | 20.56° C | 48% | 1027.9 hPa | 0 mm | - | 658 W/m² | - |
| 1777287934 | 20° C | 47% | 1027.6 hPa | 0 mm | - | 656 W/m² | - |
| 1777286111 | 21.11° C | 48% | 1028.2 hPa | 0 mm | - | 624 W/m² | - |
| 1777284307 | 20° C | 50% | 1028.2 hPa | 0 mm | - | 579 W/m² | - |
| 1777281869 | 18.89° C | 53% | 1028.8 hPa | 0 mm | - | 503 W/m² | - |
| 1777281263 | 20° C | 50% | 1028.6 hPa | 0 mm | - | 481 W/m² | - |
* Rain latest hour (hover to see other rain measurements)
** Current wind speed in m/s (hover to see current wind gust speed)